NORTHERN QUEENS  -  Freeze Warning Freeze Warning        SOUTHERN QUEENS  -  Freeze Warning Freeze Warning      

Active alerts

Northern Queens
  Details for Northern Queens Freeze Warning
Southern Queens
  Details for Southern Queens Freeze Warning


WXM80 ListenWXM80 Stop

You find our weather info also at:

UK Metoffice

WeatherCloud

Weather Underground

Northeastern Weather Network

AWEKAS

Citizen Weather Observer Program (CWOP)

HAMweather, WeatherForYou, PWS Weather


Weather Underground History page Text

Daily Summary for January 30, 2018 Units:  Both    English   Metric
« Previous Day
Next Day »
Daily Weekly Monthly Yearly Custom
  High: Low: Average:
Temperature: 37.2 °F /  2.9 °C 26.0 °F /  -3.3 °C 31.3 °F /  -0.4 °C
Dew Point: 32.2 °F /  0.1 °C 18.3 °F /  -7.6 °C 27.7 °F /  -2.4 °C
Humidity: 95 % 72 % 87 %
Wind Speed: 10.4 mph /  16.7 km/h - 4.5 mph /  7.2 km/h
Wind Gust: 20.7 mph /  33.3 km/h - -
Wind:- - SSW
Pressure: 29.90 in /  1012.4 hPa 29.66 in /  1004.3 hPa -
Precipitation: 0.05 in /  1.27 mm    
Historical Graphs
 
 
Tabular Data for January 30, 2018
Time Temperature Dew Point Pressure Wind Wind Speed Wind Gust Humidity Rainfall Rate (Hourly)
00:00 32.3 °F /  0.2 °C 27.1 °F /  -2.7 °C 29.75 in /  1007.3 hPa NNE 6.9 mph /  11.1 km/h 13.8 mph /  22.2 km/h 81 % 0.00 in /  0 mm
00:06 32.2 °F /  0.1 °C 27.0 °F /  -2.8 °C 29.75 in /  1007.3 hPa NE 5.0 mph /  8 km/h 14.0 mph /  22.5 km/h 81 % 0.00 in /  0 mm
00:11 32.1 °F /  0.1 °C 27.3 °F /  -2.6 °C 29.75 in /  1007.3 hPa NE 9.0 mph /  14.5 km/h 16.0 mph /  25.7 km/h 82 % 0.00 in /  0 mm
00:16 32.0 °F /  0 °C 27.1 °F /  -2.7 °C 29.75 in /  1007.3 hPa ENE 7.4 mph /  11.9 km/h 12.7 mph /  20.4 km/h 82 % 0.00 in /  0 mm
00:21 32.0 °F /  0 °C 26.8 °F /  -2.9 °C 29.75 in /  1007.3 hPa NE 6.5 mph /  10.5 km/h 11.5 mph /  18.5 km/h 81 % 0.00 in /  0 mm
00:26 32.0 °F /  0 °C 26.8 °F /  -2.9 °C 29.75 in /  1007.3 hPa NNE 7.6 mph /  12.2 km/h 11.5 mph /  18.5 km/h 81 % 0.00 in /  0 mm
00:31 32.0 °F /  0 °C 26.8 °F /  -2.9 °C 29.75 in /  1007.3 hPa NNE 5.3 mph /  8.5 km/h 9.2 mph /  14.8 km/h 81 % 0.00 in /  0 mm
00:36 32.0 °F /  0 °C 27.1 °F /  -2.7 °C 29.75 in /  1007.3 hPa NE 6.4 mph /  10.3 km/h 11.5 mph /  18.5 km/h 82 % 0.00 in /  0 mm
00:41 32.0 °F /  0 °C 27.4 °F /  -2.6 °C 29.75 in /  1007.3 hPa North 6.3 mph /  10.1 km/h 11.5 mph /  18.5 km/h 83 % 0.00 in /  0 mm
00:46 31.8 °F /  -0.1 °C 27.5 °F /  -2.5 °C 29.75 in /  1007.3 hPa NNE 7.1 mph /  11.4 km/h 11.5 mph /  18.5 km/h 84 % 0.00 in /  0 mm
00:51 31.7 °F /  -0.2 °C 27.7 °F /  -2.4 °C 29.74 in /  1007 hPa NNE 4.5 mph /  7.2 km/h 11.0 mph /  17.7 km/h 85 % 0.00 in /  0 mm
00:56 31.5 °F /  -0.3 °C 27.8 °F /  -2.3 °C 29.74 in /  1007 hPa NNE 6.4 mph /  10.3 km/h 11.5 mph /  18.5 km/h 86 % 0.00 in /  0 mm
01:01 31.4 °F /  -0.3 °C 28.0 °F /  -2.2 °C 29.74 in /  1007 hPa NNE 6.8 mph /  10.9 km/h 10.4 mph /  16.7 km/h 87 % 0.00 in /  0 mm
01:06 31.2 °F /  -0.4 °C 27.8 °F /  -2.3 °C 29.74 in /  1007 hPa North 7.9 mph /  12.7 km/h 11.5 mph /  18.5 km/h 87 % 0.00 in /  0 mm
01:11 31.0 °F /  -0.6 °C 27.9 °F /  -2.3 °C 29.74 in /  1007 hPa NE 6.8 mph /  10.9 km/h 11.5 mph /  18.5 km/h 88 % 0.00 in /  0 mm
01:16 30.9 °F /  -0.6 °C 28.0 °F /  -2.2 °C 29.74 in /  1007 hPa North 7.0 mph /  11.3 km/h 10.0 mph /  16.1 km/h 89 % 0.00 in /  0 mm
01:21 30.8 °F /  -0.7 °C 28.2 °F /  -2.1 °C 29.75 in /  1007.3 hPa NE 5.4 mph /  8.7 km/h 11.5 mph /  18.5 km/h 90 % 0.00 in /  0 mm
01:26 30.7 °F /  -0.7 °C 28.1 °F /  -2.2 °C 29.74 in /  1007 hPa NNE 8.1 mph /  13 km/h 11.5 mph /  18.5 km/h 90 % 0.00 in /  0 mm
01:31 30.5 °F /  -0.8 °C 28.2 °F /  -2.1 °C 29.73 in /  1006.7 hPa NNE 5.7 mph /  9.2 km/h 9.2 mph /  14.8 km/h 91 % 0.00 in /  0 mm
01:37 30.5 °F /  -0.8 °C 28.2 °F /  -2.1 °C 29.74 in /  1007 hPa NNE 5.3 mph /  8.5 km/h 6.9 mph /  11.1 km/h 91 % 0.00 in /  0 mm
01:42 30.3 °F /  -0.9 °C 28.0 °F /  -2.2 °C 29.73 in /  1006.7 hPa NNE 7.6 mph /  12.2 km/h 12.7 mph /  20.4 km/h 91 % 0.00 in /  0 mm
01:47 30.2 °F /  -1 °C 28.2 °F /  -2.1 °C 29.73 in /  1006.7 hPa NNE 5.9 mph /  9.5 km/h 10.4 mph /  16.7 km/h 92 % 0.00 in /  0 mm
01:52 30.0 °F /  -1.1 °C 28.0 °F /  -2.2 °C 29.73 in /  1006.7 hPa NNE 6.2 mph /  10 km/h 11.5 mph /  18.5 km/h 92 % 0.00 in /  0 mm
01:57 29.9 °F /  -1.2 °C 27.9 °F /  -2.3 °C 29.73 in /  1006.7 hPa NNE 6.6 mph /  10.6 km/h 11.5 mph /  18.5 km/h 92 % 0.00 in /  0 mm
02:02 29.8 °F /  -1.2 °C 28.0 °F /  -2.2 °C 29.73 in /  1006.7 hPa NNE 7.0 mph /  11.3 km/h 8.1 mph /  13 km/h 93 % 0.00 in /  0 mm
02:07 29.8 °F /  -1.2 °C 28.0 °F /  -2.2 °C 29.72 in /  1006.3 hPa NNE 5.7 mph /  9.2 km/h 11.5 mph /  18.5 km/h 93 % 0.00 in /  0 mm
02:12 29.8 °F /  -1.2 °C 28.0 °F /  -2.2 °C 29.71 in /  1006 hPa NNE 6.4 mph /  10.3 km/h 11.5 mph /  18.5 km/h 93 % 0.00 in /  0 mm
02:17 29.7 °F /  -1.3 °C 27.9 °F /  -2.3 °C 29.72 in /  1006.3 hPa NE 7.6 mph /  12.2 km/h 11.5 mph /  18.5 km/h 93 % 0.00 in /  0 mm
02:22 29.7 °F /  -1.3 °C 28.2 °F /  -2.1 °C 29.72 in /  1006.3 hPa North 5.7 mph /  9.2 km/h 6.0 mph /  9.7 km/h 94 % 0.00 in /  0 mm
02:27 29.7 °F /  -1.3 °C 28.2 °F /  -2.1 °C 29.72 in /  1006.3 hPa NNE 7.1 mph /  11.4 km/h 9.2 mph /  14.8 km/h 94 % 0.00 in /  0 mm
02:32 29.6 °F /  -1.3 °C 28.1 °F /  -2.2 °C 29.71 in /  1006 hPa NE 7.5 mph /  12.1 km/h 12.7 mph /  20.4 km/h 94 % 0.00 in /  0 mm
02:37 29.5 °F /  -1.4 °C 28.0 °F /  -2.2 °C 29.72 in /  1006.3 hPa NE 7.1 mph /  11.4 km/h 11.5 mph /  18.5 km/h 94 % 0.00 in /  0 mm
02:42 29.4 °F /  -1.4 °C 27.9 °F /  -2.3 °C 29.72 in /  1006.3 hPa NNE 6.8 mph /  10.9 km/h 10.4 mph /  16.7 km/h 94 % 0.00 in /  0 mm
02:47 29.4 °F /  -1.4 °C 27.9 °F /  -2.3 °C 29.73 in /  1006.7 hPa NNE 5.0 mph /  8 km/h 8.0 mph /  12.9 km/h 94 % 0.00 in /  0 mm
02:52 29.4 °F /  -1.4 °C 27.9 °F /  -2.3 °C 29.73 in /  1006.7 hPa NNE 6.4 mph /  10.3 km/h 8.1 mph /  13 km/h 94 % 0.00 in /  0 mm
02:57 29.4 °F /  -1.4 °C 27.9 °F /  -2.3 °C 29.72 in /  1006.3 hPa North 4.1 mph /  6.6 km/h 9.2 mph /  14.8 km/h 94 % 0.00 in /  0 mm
03:02 29.4 °F /  -1.4 °C 27.9 °F /  -2.3 °C 29.72 in /  1006.3 hPa NNE 6.8 mph /  10.9 km/h 10.4 mph /  16.7 km/h 94 % 0.00 in /  0 mm
03:08 29.4 °F /  -1.4 °C 27.9 °F /  -2.3 °C 29.71 in /  1006 hPa NNE 6.9 mph /  11.1 km/h 9.0 mph /  14.5 km/h 94 % 0.00 in /  0 mm
03:13 29.3 °F /  -1.5 °C 27.8 °F /  -2.3 °C 29.72 in /  1006.3 hPa NNE 4.2 mph /  6.8 km/h 10.4 mph /  16.7 km/h 94 % 0.00 in /  0 mm
03:18 29.3 °F /  -1.5 °C 27.8 °F /  -2.3 °C 29.72 in /  1006.3 hPa North 5.3 mph /  8.5 km/h 10.4 mph /  16.7 km/h 94 % 0.00 in /  0 mm
03:23 29.3 °F /  -1.5 °C 27.5 °F /  -2.5 °C 29.72 in /  1006.3 hPa NNE 9.9 mph /  15.9 km/h 12.7 mph /  20.4 km/h 93 % 0.00 in /  0 mm
03:28 29.3 °F /  -1.5 °C 27.5 °F /  -2.5 °C 29.73 in /  1006.7 hPa NNE 5.8 mph /  9.3 km/h 12.0 mph /  19.3 km/h 93 % 0.00 in /  0 mm
03:33 29.2 °F /  -1.6 °C 27.4 °F /  -2.6 °C 29.73 in /  1006.7 hPa NNE 4.4 mph /  7.1 km/h 9.0 mph /  14.5 km/h 93 % 0.00 in /  0 mm
03:38 29.2 °F /  -1.6 °C 27.4 °F /  -2.6 °C 29.72 in /  1006.3 hPa NNW 5.1 mph /  8.2 km/h 8.1 mph /  13 km/h 93 % 0.00 in /  0 mm
03:43 29.2 °F /  -1.6 °C 27.4 °F /  -2.6 °C 29.72 in /  1006.3 hPa NE 6.0 mph /  9.7 km/h 9.2 mph /  14.8 km/h 93 % 0.00 in /  0 mm
03:48 29.2 °F /  -1.6 °C 27.4 °F /  -2.6 °C 29.72 in /  1006.3 hPa North 5.1 mph /  8.2 km/h 9.2 mph /  14.8 km/h 93 % 0.00 in /  0 mm
03:53 29.2 °F /  -1.6 °C 27.4 °F /  -2.6 °C 29.72 in /  1006.3 hPa NNE 6.5 mph /  10.5 km/h 9.2 mph /  14.8 km/h 93 % 0.00 in /  0 mm
03:58 29.2 °F /  -1.6 °C 27.4 °F /  -2.6 °C 29.72 in /  1006.3 hPa North 5.5 mph /  8.9 km/h 8.1 mph /  13 km/h 93 % 0.00 in /  0 mm
04:03 29.2 °F /  -1.6 °C 27.4 °F /  -2.6 °C 29.72 in /  1006.3 hPa NNW 3.9 mph /  6.3 km/h 6.9 mph /  11.1 km/h 93 % 0.00 in /  0 mm
04:08 29.2 °F /  -1.6 °C 27.4 °F /  -2.6 °C 29.73 in /  1006.7 hPa North 4.8 mph /  7.7 km/h 5.8 mph /  9.3 km/h 93 % 0.00 in /  0 mm
04:13 29.2 °F /  -1.6 °C 27.4 °F /  -2.6 °C 29.72 in /  1006.3 hPa North 4.2 mph /  6.8 km/h 6.9 mph /  11.1 km/h 93 % 0.00 in /  0 mm
04:18 29.2 °F /  -1.6 °C 27.4 °F /  -2.6 °C 29.71 in /  1006 hPa NNE 5.9 mph /  9.5 km/h 7.0 mph /  11.3 km/h 93 % 0.00 in /  0 mm
04:23 29.2 °F /  -1.6 °C 27.7 °F /  -2.4 °C 29.71 in /  1006 hPa NNE 6.0 mph /  9.7 km/h 9.0 mph /  14.5 km/h 94 % 0.00 in /  0 mm
04:29 29.2 °F /  -1.6 °C 27.7 °F /  -2.4 °C 29.72 in /  1006.3 hPa NNE 4.2 mph /  6.8 km/h 5.8 mph /  9.3 km/h 94 % 0.00 in /  0 mm
04:34 29.2 °F /  -1.6 °C 27.7 °F /  -2.4 °C 29.72 in /  1006.3 hPa North 3.7 mph /  6 km/h 6.0 mph /  9.7 km/h 94 % 0.00 in /  0 mm
04:39 29.2 °F /  -1.6 °C 27.7 °F /  -2.4 °C 29.72 in /  1006.3 hPa North 6.0 mph /  9.7 km/h 11.5 mph /  18.5 km/h 94 % 0.00 in /  0 mm
04:44 29.1 °F /  -1.6 °C 27.6 °F /  -2.4 °C 29.72 in /  1006.3 hPa NE 5.4 mph /  8.7 km/h 8.1 mph /  13 km/h 94 % 0.00 in /  0 mm
04:49 29.1 °F /  -1.6 °C 27.6 °F /  -2.4 °C 29.72 in /  1006.3 hPa NNE 5.1 mph /  8.2 km/h 8.1 mph /  13 km/h 94 % 0.00 in /  0 mm
04:54 29.1 °F /  -1.6 °C 27.6 °F /  -2.4 °C 29.72 in /  1006.3 hPa NNE 3.7 mph /  6 km/h 6.0 mph /  9.7 km/h 94 % 0.00 in /  0 mm
04:59 29.2 °F /  -1.6 °C 27.7 °F /  -2.4 °C 29.72 in /  1006.3 hPa NNE 3.7 mph /  6 km/h 6.9 mph /  11.1 km/h 94 % 0.00 in /  0 mm
05:04 29.1 °F /  -1.6 °C 27.6 °F /  -2.4 °C 29.72 in /  1006.3 hPa NNE 3.1 mph /  5 km/h 8.1 mph /  13 km/h 94 % 0.00 in /  0 mm
05:09 29.2 °F /  -1.6 °C 27.7 °F /  -2.4 °C 29.73 in /  1006.7 hPa North 2.9 mph /  4.7 km/h 4.0 mph /  6.4 km/h 94 % 0.00 in /  0 mm
05:14 29.2 °F /  -1.6 °C 27.7 °F /  -2.4 °C 29.73 in /  1006.7 hPa North 3.6 mph /  5.8 km/h 5.8 mph /  9.3 km/h 94 % 0.00 in /  0 mm
05:19 29.2 °F /  -1.6 °C 27.7 °F /  -2.4 °C 29.73 in /  1006.7 hPa North 0.7 mph /  1.1 km/h 3.5 mph /  5.6 km/h 94 % 0.00 in /  0 mm
05:24 29.2 °F /  -1.6 °C 27.7 °F /  -2.4 °C 29.73 in /  1006.7 hPa North 3.1 mph /  5 km/h 4.6 mph /  7.4 km/h 94 % 0.01 in /  0.25 mm
05:29 29.3 °F /  -1.5 °C 28.0 °F /  -2.2 °C 29.73 in /  1006.7 hPa NE 3.5 mph /  5.6 km/h 6.9 mph /  11.1 km/h 95 % 0.01 in /  0.25 mm
05:34 29.3 °F /  -1.5 °C 28.0 °F /  -2.2 °C 29.73 in /  1006.7 hPa NNE 3.8 mph /  6.1 km/h 6.0 mph /  9.7 km/h 95 % 0.01 in /  0.25 mm
05:39 29.3 °F /  -1.5 °C 28.0 °F /  -2.2 °C 29.73 in /  1006.7 hPa North 2.4 mph /  3.9 km/h 6.0 mph /  9.7 km/h 95 % 0.01 in /  0.25 mm
05:44 29.3 °F /  -1.5 °C 28.0 °F /  -2.2 °C 29.73 in /  1006.7 hPa NNW 4.0 mph /  6.4 km/h 6.0 mph /  9.7 km/h 95 % 0.01 in /  0.25 mm
05:49 29.4 °F /  -1.4 °C 28.1 °F /  -2.2 °C 29.73 in /  1006.7 hPa NNE 2.7 mph /  4.3 km/h 6.9 mph /  11.1 km/h 95 % 0.02 in /  0.51 mm
05:54 29.4 °F /  -1.4 °C 28.1 °F /  -2.2 °C 29.73 in /  1006.7 hPa NNE 2.7 mph /  4.3 km/h 6.9 mph /  11.1 km/h 95 % 0.02 in /  0.51 mm
06:00 29.5 °F /  -1.4 °C 28.2 °F /  -2.1 °C 29.73 in /  1006.7 hPa North 1.0 mph /  1.6 km/h 3.5 mph /  5.6 km/h 95 % 0.02 in /  0.51 mm
06:05 29.5 °F /  -1.4 °C 28.2 °F /  -2.1 °C 29.73 in /  1006.7 hPa North 4.3 mph /  6.9 km/h 4.6 mph /  7.4 km/h 95 % 0.02 in /  0.51 mm
06:10 29.5 °F /  -1.4 °C 28.2 °F /  -2.1 °C 29.73 in /  1006.7 hPa NNW 4.4 mph /  7.1 km/h 5.8 mph /  9.3 km/h 95 % 0.02 in /  0.51 mm
06:15 29.5 °F /  -1.4 °C 28.2 °F /  -2.1 °C 29.74 in /  1007 hPa North 5.3 mph /  8.5 km/h 8.1 mph /  13 km/h 95 % 0.03 in /  0.76 mm
06:20 29.5 °F /  -1.4 °C 28.2 °F /  -2.1 °C 29.73 in /  1006.7 hPa North 4.9 mph /  7.9 km/h 8.1 mph /  13 km/h 95 % 0.03 in /  0.76 mm
06:25 29.5 °F /  -1.4 °C 28.2 °F /  -2.1 °C 29.73 in /  1006.7 hPa NNE 5.2 mph /  8.4 km/h 8.1 mph /  13 km/h 95 % 0.02 in /  0.51 mm
06:30 29.5 °F /  -1.4 °C 28.2 °F /  -2.1 °C 29.73 in /  1006.7 hPa North 6.1 mph /  9.8 km/h 8.1 mph /  13 km/h 95 % 0.02 in /  0.51 mm
06:35 29.4 °F /  -1.4 °C 28.1 °F /  -2.2 °C 29.73 in /  1006.7 hPa NNW 3.9 mph /  6.3 km/h 6.9 mph /  11.1 km/h 95 % 0.02 in /  0.51 mm
06:40 29.4 °F /  -1.4 °C 28.1 °F /  -2.2 °C 29.74 in /  1007 hPa NNE 4.1 mph /  6.6 km/h 5.0 mph /  8 km/h 95 % 0.02 in /  0.51 mm
06:45 29.4 °F /  -1.4 °C 28.1 °F /  -2.2 °C 29.74 in /  1007 hPa NNW 3.1 mph /  5 km/h 6.9 mph /  11.1 km/h 95 % 0.02 in /  0.51 mm
06:50 29.5 °F /  -1.4 °C 28.2 °F /  -2.1 °C 29.74 in /  1007 hPa North 2.4 mph /  3.9 km/h 4.0 mph /  6.4 km/h 95 % 0.01 in /  0.25 mm
06:55 29.5 °F /  -1.4 °C 28.2 °F /  -2.1 °C 29.74 in /  1007 hPa NNE 4.2 mph /  6.8 km/h 6.9 mph /  11.1 km/h 95 % 0.01 in /  0.25 mm
07:00 29.4 °F /  -1.4 °C 28.1 °F /  -2.2 °C 29.74 in /  1007 hPa North 5.1 mph /  8.2 km/h 6.9 mph /  11.1 km/h 95 % 0.01 in /  0.25 mm
07:04 29.4 °F /  -1.4 °C 28.1 °F /  -2.2 °C 29.74 in /  1007 hPa North 5.3 mph /  8.5 km/h 8.1 mph /  13 km/h 95 % 0.01 in /  0.25 mm
07:09 29.3 °F /  -1.5 °C 28.0 °F /  -2.2 °C 29.73 in /  1006.7 hPa North 3.8 mph /  6.1 km/h 4.6 mph /  7.4 km/h 95 % 0.01 in /  0.25 mm
07:14 29.4 °F /  -1.4 °C 28.1 °F /  -2.2 °C 29.74 in /  1007 hPa NE 5.7 mph /  9.2 km/h 7.0 mph /  11.3 km/h 95 % 0.01 in /  0.25 mm
07:20 29.3 °F /  -1.5 °C 28.0 °F /  -2.2 °C 29.73 in /  1006.7 hPa NNE 3.9 mph /  6.3 km/h 5.8 mph /  9.3 km/h 95 % 0.01 in /  0.25 mm
07:25 29.3 °F /  -1.5 °C 28.0 °F /  -2.2 °C 29.74 in /  1007 hPa North 4.8 mph /  7.7 km/h 6.9 mph /  11.1 km/h 95 % 0.01 in /  0.25 mm
07:30 29.3 °F /  -1.5 °C 28.0 °F /  -2.2 °C 29.74 in /  1007 hPa North 6.8 mph /  10.9 km/h 9.2 mph /  14.8 km/h 95 % 0.01 in /  0.25 mm
07:35 29.2 °F /  -1.6 °C 27.9 °F /  -2.3 °C 29.73 in /  1006.7 hPa NNE 3.6 mph /  5.8 km/h 6.9 mph /  11.1 km/h 95 % 0.01 in /  0.25 mm
07:40 29.2 °F /  -1.6 °C 27.9 °F /  -2.3 °C 29.73 in /  1006.7 hPa NNE 3.2 mph /  5.1 km/h 5.8 mph /  9.3 km/h 95 % 0.01 in /  0.25 mm
07:45 29.3 °F /  -1.5 °C 28.0 °F /  -2.2 °C 29.73 in /  1006.7 hPa NNE 4.9 mph /  7.9 km/h 10.4 mph /  16.7 km/h 95 % 0.01 in /  0.25 mm
07:50 29.3 °F /  -1.5 °C 28.0 °F /  -2.2 °C 29.73 in /  1006.7 hPa NNE 5.6 mph /  9 km/h 8.1 mph /  13 km/h 95 % 0.01 in /  0.25 mm
07:55 29.3 °F /  -1.5 °C 28.0 °F /  -2.2 °C 29.73 in /  1006.7 hPa North 4.3 mph /  6.9 km/h 5.8 mph /  9.3 km/h 95 % 0.01 in /  0.25 mm
08:00 29.3 °F /  -1.5 °C 28.0 °F /  -2.2 °C 29.73 in /  1006.7 hPa NNE 5.2 mph /  8.4 km/h 8.1 mph /  13 km/h 95 % 0.02 in /  0.51 mm
08:05 29.3 °F /  -1.5 °C 28.0 °F /  -2.2 °C 29.73 in /  1006.7 hPa North 5.7 mph /  9.2 km/h 8.1 mph /  13 km/h 95 % 0.02 in /  0.51 mm
08:10 29.2 °F /  -1.6 °C 27.9 °F /  -2.3 °C 29.73 in /  1006.7 hPa NNE 6.0 mph /  9.7 km/h 9.0 mph /  14.5 km/h 95 % 0.02 in /  0.51 mm
08:15 29.2 °F /  -1.6 °C 27.9 °F /  -2.3 °C 29.73 in /  1006.7 hPa North 2.9 mph /  4.7 km/h 6.9 mph /  11.1 km/h 95 % 0.02 in /  0.51 mm
08:20 29.3 °F /  -1.5 °C 28.0 °F /  -2.2 °C 29.74 in /  1007 hPa NNE 5.7 mph /  9.2 km/h 8.1 mph /  13 km/h 95 % 0.01 in /  0.25 mm
08:25 29.4 °F /  -1.4 °C 28.1 °F /  -2.2 °C 29.73 in /  1006.7 hPa NNE 3.4 mph /  5.5 km/h 6.9 mph /  11.1 km/h 95 % 0.01 in /  0.25 mm
08:30 29.4 °F /  -1.4 °C 28.1 °F /  -2.2 °C 29.73 in /  1006.7 hPa NNE 5.4 mph /  8.7 km/h 6.9 mph /  11.1 km/h 95 % 0.01 in /  0.25 mm
08:35 29.5 °F /  -1.4 °C 28.2 °F /  -2.1 °C 29.74 in /  1007 hPa North 5.6 mph /  9 km/h 9.2 mph /  14.8 km/h 95 % 0.01 in /  0.25 mm
08:40 29.5 °F /  -1.4 °C 28.2 °F /  -2.1 °C 29.73 in /  1006.7 hPa NNE 3.0 mph /  4.8 km/h 5.8 mph /  9.3 km/h 95 % 0.01 in /  0.25 mm
08:46 29.6 °F /  -1.3 °C 28.3 °F /  -2.1 °C 29.73 in /  1006.7 hPa North 3.3 mph /  5.3 km/h 5.8 mph /  9.3 km/h 95 % 0.01 in /  0.25 mm
08:51 29.7 °F /  -1.3 °C 28.4 °F /  -2 °C 29.73 in /  1006.7 hPa NNE 3.0 mph /  4.8 km/h 7.0 mph /  11.3 km/h 95 % 0.00 in /  0 mm
08:56 29.8 °F /  -1.2 °C 28.5 °F /  -1.9 °C 29.73 in /  1006.7 hPa NNE 3.0 mph /  4.8 km/h 6.0 mph /  9.7 km/h 95 % 0.00 in /  0 mm
09:00 29.8 °F /  -1.2 °C 28.5 °F /  -1.9 °C 29.73 in /  1006.7 hPa NNE 3.6 mph /  5.8 km/h 5.8 mph /  9.3 km/h 95 % 0.00 in /  0 mm
09:06 29.9 °F /  -1.2 °C 28.6 °F /  -1.9 °C 29.73 in /  1006.7 hPa NNE 5.0 mph /  8 km/h 8.0 mph /  12.9 km/h 95 % 0.00 in /  0 mm
09:11 29.9 °F /  -1.2 °C 28.6 °F /  -1.9 °C 29.73 in /  1006.7 hPa NNE 3.0 mph /  4.8 km/h 7.0 mph /  11.3 km/h 95 % 0.00 in /  0 mm
09:16 30.0 °F /  -1.1 °C 28.7 °F /  -1.8 °C 29.73 in /  1006.7 hPa NNE 5.0 mph /  8 km/h 7.0 mph /  11.3 km/h 95 % 0.00 in /  0 mm
09:21 30.0 °F /  -1.1 °C 28.7 °F /  -1.8 °C 29.73 in /  1006.7 hPa NNE 3.0 mph /  4.8 km/h 7.0 mph /  11.3 km/h 95 % 0.00 in /  0 mm
09:26 30.1 °F /  -1.1 °C 28.8 °F /  -1.8 °C 29.73 in /  1006.7 hPa NNE 3.0 mph /  4.8 km/h 6.0 mph /  9.7 km/h 95 % 0.00 in /  0 mm
09:31 30.1 °F /  -1.1 °C 28.6 °F /  -1.9 °C 29.73 in /  1006.7 hPa NNE 2.0 mph /  3.2 km/h 9.0 mph /  14.5 km/h 94 % 0.00 in /  0 mm
09:36 30.1 °F /  -1.1 °C 28.6 °F /  -1.9 °C 29.73 in /  1006.7 hPa NNE 3.0 mph /  4.8 km/h 7.0 mph /  11.3 km/h 94 % 0.00 in /  0 mm
09:41 30.1 °F /  -1.1 °C 28.6 °F /  -1.9 °C 29.73 in /  1006.7 hPa NNE 3.0 mph /  4.8 km/h 7.0 mph /  11.3 km/h 94 % 0.00 in /  0 mm
09:46 30.2 °F /  -1 °C 28.7 °F /  -1.8 °C 29.73 in /  1006.7 hPa NNE 1.0 mph /  1.6 km/h 4.0 mph /  6.4 km/h 94 % 0.00 in /  0 mm
09:51 30.4 °F /  -0.9 °C 28.9 °F /  -1.7 °C 29.73 in /  1006.7 hPa NNE 3.0 mph /  4.8 km/h 6.0 mph /  9.7 km/h 94 % 0.00 in /  0 mm
09:56 30.5 °F /  -0.8 °C 29.0 °F /  -1.7 °C 29.73 in /  1006.7 hPa NNE 2.0 mph /  3.2 km/h 5.0 mph /  8 km/h 94 % 0.00 in /  0 mm
10:01 30.6 °F /  -0.8 °C 29.1 °F /  -1.6 °C 29.72 in /  1006.3 hPa NNE 4.3 mph /  6.9 km/h 6.0 mph /  9.7 km/h 94 % 0.00 in /  0 mm
10:06 30.7 °F /  -0.7 °C 29.2 °F /  -1.6 °C 29.72 in /  1006.3 hPa NNE 2.1 mph /  3.4 km/h 4.6 mph /  7.4 km/h 94 % 0.00 in /  0 mm
10:11 30.8 °F /  -0.7 °C 29.3 °F /  -1.5 °C 29.72 in /  1006.3 hPa NNE 2.4 mph /  3.9 km/h 4.0 mph /  6.4 km/h 94 % 0.00 in /  0 mm
10:16 31.0 °F /  -0.6 °C 29.5 °F /  -1.4 °C 29.73 in /  1006.7 hPa NNE 2.8 mph /  4.5 km/h 5.8 mph /  9.3 km/h 94 % 0.00 in /  0 mm
10:21 31.2 °F /  -0.4 °C 29.7 °F /  -1.3 °C 29.72 in /  1006.3 hPa NNE 1.9 mph /  3.1 km/h 3.5 mph /  5.6 km/h 94 % 0.00 in /  0 mm
10:26 31.5 °F /  -0.3 °C 30.0 °F /  -1.1 °C 29.73 in /  1006.7 hPa NNE 1.1 mph /  1.8 km/h 3.5 mph /  5.6 km/h 94 % 0.00 in /  0 mm
10:31 31.7 °F /  -0.2 °C 30.2 °F /  -1 °C 29.73 in /  1006.7 hPa North 2.0 mph /  3.2 km/h 3.0 mph /  4.8 km/h 94 % 0.00 in /  0 mm
10:36 32.0 °F /  0 °C 30.5 °F /  -0.8 °C 29.72 in /  1006.3 hPa North 1.0 mph /  1.6 km/h 2.3 mph /  3.7 km/h 94 % 0.00 in /  0 mm
10:41 32.2 °F /  0.1 °C 30.7 °F /  -0.7 °C 29.73 in /  1006.7 hPa North 2.1 mph /  3.4 km/h 3.5 mph /  5.6 km/h 94 % 0.00 in /  0 mm
10:46 32.5 °F /  0.3 °C 31.0 °F /  -0.6 °C 29.73 in /  1006.7 hPa NNW 1.5 mph /  2.4 km/h 2.3 mph /  3.7 km/h 94 % 0.00 in /  0 mm
10:51 32.7 °F /  0.4 °C 31.2 °F /  -0.4 °C 29.72 in /  1006.3 hPa NW 1.6 mph /  2.6 km/h 2.3 mph /  3.7 km/h 94 % 0.00 in /  0 mm
10:56 33.0 °F /  0.6 °C 31.5 °F /  -0.3 °C 29.72 in /  1006.3 hPa NW 1.3 mph /  2.1 km/h 3.0 mph /  4.8 km/h 94 % 0.00 in /  0 mm
11:01 33.3 °F /  0.7 °C 31.5 °F /  -0.3 °C 29.72 in /  1006.3 hPa NNW 0.6 mph /  1 km/h 3.5 mph /  5.6 km/h 93 % 0.00 in /  0 mm
11:06 33.6 °F /  0.9 °C 31.8 °F /  -0.1 °C 29.72 in /  1006.3 hPa WNW 1.6 mph /  2.6 km/h 4.6 mph /  7.4 km/h 93 % 0.00 in /  0 mm
11:11 33.9 °F /  1.1 °C 31.8 °F /  -0.1 °C 29.72 in /  1006.3 hPa WNW 2.2 mph /  3.5 km/h 3.5 mph /  5.6 km/h 92 % 0.00 in /  0 mm
11:16 34.1 °F /  1.2 °C 31.7 °F /  -0.2 °C 29.72 in /  1006.3 hPa NW 1.7 mph /  2.7 km/h 3.5 mph /  5.6 km/h 91 % 0.00 in /  0 mm
11:21 34.2 °F /  1.2 °C 31.8 °F /  -0.1 °C 29.72 in /  1006.3 hPa NW 1.2 mph /  1.9 km/h 3.5 mph /  5.6 km/h 91 % 0.00 in /  0 mm
11:27 34.4 °F /  1.3 °C 31.8 °F /  -0.1 °C 29.71 in /  1006 hPa NW 2.3 mph /  3.7 km/h 4.6 mph /  7.4 km/h 90 % 0.00 in /  0 mm
11:32 34.6 °F /  1.4 °C 31.7 °F /  -0.2 °C 29.71 in /  1006 hPa NW 0.7 mph /  1.1 km/h 3.5 mph /  5.6 km/h 89 % 0.00 in /  0 mm
11:37 34.7 °F /  1.5 °C 31.8 °F /  -0.1 °C 29.71 in /  1006 hPa NW 0.5 mph /  0.8 km/h 3.5 mph /  5.6 km/h 89 % 0.00 in /  0 mm
11:42 34.8 °F /  1.6 °C 31.9 °F /  -0.1 °C 29.71 in /  1006 hPa NW 2.4 mph /  3.9 km/h 3.5 mph /  5.6 km/h 89 % 0.00 in /  0 mm
11:47 35.0 °F /  1.7 °C 31.8 °F /  -0.1 °C 29.70 in /  1005.6 hPa NW 1.9 mph /  3.1 km/h 3.5 mph /  5.6 km/h 88 % 0.00 in /  0 mm
11:52 35.0 °F /  1.7 °C 31.8 °F /  -0.1 °C 29.71 in /  1006 hPa WNW 2.7 mph /  4.3 km/h 4.6 mph /  7.4 km/h 88 % 0.00 in /  0 mm
11:57 35.0 °F /  1.7 °C 31.5 °F /  -0.3 °C 29.70 in /  1005.6 hPa WNW 1.9 mph /  3.1 km/h 3.5 mph /  5.6 km/h 87 % 0.00 in /  0 mm
12:02 35.1 °F /  1.7 °C 31.6 °F /  -0.2 °C 29.70 in /  1005.6 hPa West 1.5 mph /  2.4 km/h 3.5 mph /  5.6 km/h 87 % 0.00 in /  0 mm
12:07 35.3 °F /  1.8 °C 31.8 °F /  -0.1 °C 29.70 in /  1005.6 hPa WNW 3.4 mph /  5.5 km/h 5.0 mph /  8 km/h 87 % 0.00 in /  0 mm
12:12 35.4 °F /  1.9 °C 31.6 °F /  -0.2 °C 29.69 in /  1005.3 hPa NNW 0.1 mph /  0.2 km/h 2.3 mph /  3.7 km/h 86 % 0.00 in /  0 mm
12:17 35.6 °F /  2 °C 31.8 °F /  -0.1 °C 29.69 in /  1005.3 hPa NW 0.7 mph /  1.1 km/h 3.5 mph /  5.6 km/h 86 % 0.00 in /  0 mm
12:22 35.7 °F /  2.1 °C 31.9 °F /  -0.1 °C 29.68 in /  1005 hPa West 2.1 mph /  3.4 km/h 4.0 mph /  6.4 km/h 86 % 0.00 in /  0 mm
12:27 35.8 °F /  2.1 °C 31.7 °F /  -0.2 °C 29.68 in /  1005 hPa WNW 2.4 mph /  3.9 km/h 3.5 mph /  5.6 km/h 85 % 0.00 in /  0 mm
12:32 36.0 °F /  2.2 °C 31.9 °F /  -0.1 °C 29.68 in /  1005 hPa West 0.3 mph /  0.5 km/h 1.2 mph /  1.9 km/h 85 % 0.00 in /  0 mm
12:37 36.2 °F /  2.3 °C 31.8 °F /  -0.1 °C 29.68 in /  1005 hPa Calm   1.2 mph /  1.9 km/h 84 % 0.00 in /  0 mm
12:42 36.4 °F /  2.4 °C 31.7 °F /  -0.2 °C 29.68 in /  1005 hPa WNW 0.7 mph /  1.1 km/h 4.6 mph /  7.4 km/h 83 % 0.00 in /  0 mm
12:47 36.5 °F /  2.5 °C 31.8 °F /  -0.1 °C 29.68 in /  1005 hPa WSW 2.3 mph /  3.7 km/h 5.0 mph /  8 km/h 83 % 0.00 in /  0 mm
12:52 36.5 °F /  2.5 °C 31.5 °F /  -0.3 °C 29.68 in /  1005 hPa West 1.6 mph /  2.6 km/h 3.5 mph /  5.6 km/h 82 % 0.00 in /  0 mm
12:57 36.6 °F /  2.6 °C 31.6 °F /  -0.2 °C 29.68 in /  1005 hPa West 0.5 mph /  0.8 km/h 3.5 mph /  5.6 km/h 82 % 0.00 in /  0 mm
13:02 36.7 °F /  2.6 °C 32.0 °F /  0 °C 29.67 in /  1004.6 hPa NW 2.1 mph /  3.4 km/h 3.5 mph /  5.6 km/h 83 % 0.00 in /  0 mm
13:08 36.6 °F /  2.6 °C 31.9 °F /  -0.1 °C 29.67 in /  1004.6 hPa NW 0.2 mph /  0.3 km/h 1.2 mph /  1.9 km/h 83 % 0.00 in /  0 mm
13:12 36.6 °F /  2.6 °C 31.9 °F /  -0.1 °C 29.67 in /  1004.6 hPa NNW 1.9 mph /  3.1 km/h 3.5 mph /  5.6 km/h 83 % 0.00 in /  0 mm
13:18 36.5 °F /  2.5 °C 31.8 °F /  -0.1 °C 29.67 in /  1004.6 hPa West 3.1 mph /  5 km/h 5.0 mph /  8 km/h 83 % 0.00 in /  0 mm
13:23 36.4 °F /  2.4 °C 31.7 °F /  -0.2 °C 29.67 in /  1004.6 hPa West 0.8 mph /  1.3 km/h 3.5 mph /  5.6 km/h 83 % 0.00 in /  0 mm
13:28 36.4 °F /  2.4 °C 32.0 °F /  0 °C 29.67 in /  1004.6 hPa NW 5.0 mph /  8 km/h 7.0 mph /  11.3 km/h 84 % 0.00 in /  0 mm
13:33 36.2 °F /  2.3 °C 31.5 °F /  -0.3 °C 29.67 in /  1004.6 hPa WNW 3.1 mph /  5 km/h 6.9 mph /  11.1 km/h 83 % 0.00 in /  0 mm
13:38 36.2 °F /  2.3 °C 31.5 °F /  -0.3 °C 29.67 in /  1004.6 hPa NW 1.9 mph /  3.1 km/h 3.5 mph /  5.6 km/h 83 % 0.00 in /  0 mm
13:43 36.2 °F /  2.3 °C 31.5 °F /  -0.3 °C 29.66 in /  1004.3 hPa WNW 2.7 mph /  4.3 km/h 5.8 mph /  9.3 km/h 83 % 0.00 in /  0 mm
13:48 36.3 °F /  2.4 °C 31.9 °F /  -0.1 °C 29.67 in /  1004.6 hPa WNW 2.8 mph /  4.5 km/h 4.6 mph /  7.4 km/h 84 % 0.00 in /  0 mm
13:53 36.4 °F /  2.4 °C 32.0 °F /  0 °C 29.67 in /  1004.6 hPa WNW 2.8 mph /  4.5 km/h 6.9 mph /  11.1 km/h 84 % 0.00 in /  0 mm
13:58 36.4 °F /  2.4 °C 32.0 °F /  0 °C 29.67 in /  1004.6 hPa NW 1.8 mph /  2.9 km/h 4.0 mph /  6.4 km/h 84 % 0.00 in /  0 mm
14:03 36.5 °F /  2.5 °C 31.8 °F /  -0.1 °C 29.66 in /  1004.3 hPa WSW 2.6 mph /  4.2 km/h 6.9 mph /  11.1 km/h 83 % 0.00 in /  0 mm
14:08 36.5 °F /  2.5 °C 31.8 °F /  -0.1 °C 29.66 in /  1004.3 hPa West 2.8 mph /  4.5 km/h 3.5 mph /  5.6 km/h 83 % 0.00 in /  0 mm
14:13 36.6 °F /  2.6 °C 31.9 °F /  -0.1 °C 29.66 in /  1004.3 hPa NNW 2.2 mph /  3.5 km/h 7.0 mph /  11.3 km/h 83 % 0.00 in /  0 mm
14:18 36.7 °F /  2.6 °C 32.0 °F /  0 °C 29.66 in /  1004.3 hPa NW 2.6 mph /  4.2 km/h 4.6 mph /  7.4 km/h 83 % 0.00 in /  0 mm
14:23 36.7 °F /  2.6 °C 31.7 °F /  -0.2 °C 29.66 in /  1004.3 hPa WNW 4.2 mph /  6.8 km/h 7.0 mph /  11.3 km/h 82 % 0.00 in /  0 mm
14:28 36.8 °F /  2.7 °C 31.8 °F /  -0.1 °C 29.66 in /  1004.3 hPa WNW 4.0 mph /  6.4 km/h 6.9 mph /  11.1 km/h 82 % 0.00 in /  0 mm
14:33 36.9 °F /  2.7 °C 32.2 °F /  0.1 °C 29.66 in /  1004.3 hPa NW 0.3 mph /  0.5 km/h 3.5 mph /  5.6 km/h 83 % 0.00 in /  0 mm
14:38 37.0 °F /  2.8 °C 32.0 °F /  0 °C 29.66 in /  1004.3 hPa WNW 1.3 mph /  2.1 km/h 3.5 mph /  5.6 km/h 82 % 0.00 in /  0 mm
14:43 37.1 °F /  2.8 °C 32.1 °F /  0.1 °C 29.66 in /  1004.3 hPa NW 4.6 mph /  7.4 km/h 4.6 mph /  7.4 km/h 82 % 0.00 in /  0 mm
14:48 37.1 °F /  2.8 °C 31.8 °F /  -0.1 °C 29.66 in /  1004.3 hPa NNW 1.4 mph /  2.3 km/h 9.2 mph /  14.8 km/h 81 % 0.00 in /  0 mm
14:53 37.2 °F /  2.9 °C 31.9 °F /  -0.1 °C 29.67 in /  1004.6 hPa NW 2.9 mph /  4.7 km/h 3.5 mph /  5.6 km/h 81 % 0.00 in /  0 mm
14:59 37.1 °F /  2.8 °C 31.8 °F /  -0.1 °C 29.67 in /  1004.6 hPa NW 4.3 mph /  6.9 km/h 5.8 mph /  9.3 km/h 81 % 0.00 in /  0 mm
15:04 37.0 °F /  2.8 °C 31.7 °F /  -0.2 °C 29.67 in /  1004.6 hPa NW 2.8 mph /  4.5 km/h 6.9 mph /  11.1 km/h 81 % 0.00 in /  0 mm
15:09 36.9 °F /  2.7 °C 31.6 °F /  -0.2 °C 29.66 in /  1004.3 hPa WNW 1.4 mph /  2.3 km/h 5.8 mph /  9.3 km/h 81 % 0.00 in /  0 mm
15:14 36.8 °F /  2.7 °C 31.8 °F /  -0.1 °C 29.67 in /  1004.6 hPa North 3.5 mph /  5.6 km/h 4.6 mph /  7.4 km/h 82 % 0.00 in /  0 mm
15:19 36.5 °F /  2.5 °C 31.5 °F /  -0.3 °C 29.67 in /  1004.6 hPa NNW 1.5 mph /  2.4 km/h 3.5 mph /  5.6 km/h 82 % 0.00 in /  0 mm
15:24 36.4 °F /  2.4 °C 31.7 °F /  -0.2 °C 29.67 in /  1004.6 hPa WNW 2.1 mph /  3.4 km/h 4.6 mph /  7.4 km/h 83 % 0.00 in /  0 mm
15:29 36.2 °F /  2.3 °C 31.5 °F /  -0.3 °C 29.68 in /  1005 hPa NW 1.4 mph /  2.3 km/h 5.0 mph /  8 km/h 83 % 0.00 in /  0 mm
15:34 36.1 °F /  2.3 °C 31.4 °F /  -0.3 °C 29.68 in /  1005 hPa NW 1.3 mph /  2.1 km/h 5.8 mph /  9.3 km/h 83 % 0.00 in /  0 mm
15:39 36.0 °F /  2.2 °C 31.6 °F /  -0.2 °C 29.67 in /  1004.6 hPa NW 4.0 mph /  6.4 km/h 10.4 mph /  16.7 km/h 84 % 0.00 in /  0 mm
15:44 35.9 °F /  2.2 °C 31.5 °F /  -0.3 °C 29.68 in /  1005 hPa NW 2.6 mph /  4.2 km/h 5.8 mph /  9.3 km/h 84 % 0.00 in /  0 mm
15:49 35.7 °F /  2.1 °C 31.3 °F /  -0.4 °C 29.68 in /  1005 hPa North 2.8 mph /  4.5 km/h 5.0 mph /  8 km/h 84 % 0.00 in /  0 mm
15:54 35.6 °F /  2 °C 31.2 °F /  -0.4 °C 29.68 in /  1005 hPa NNW 4.9 mph /  7.9 km/h 8.1 mph /  13 km/h 84 % 0.00 in /  0 mm
15:59 35.5 °F /  1.9 °C 31.4 °F /  -0.3 °C 29.68 in /  1005 hPa NNW 4.3 mph /  6.9 km/h 8.0 mph /  12.9 km/h 85 % 0.00 in /  0 mm
16:05 35.4 °F /  1.9 °C 31.3 °F /  -0.4 °C 29.68 in /  1005 hPa North 3.2 mph /  5.1 km/h 5.8 mph /  9.3 km/h 85 % 0.00 in /  0 mm
16:10 35.2 °F /  1.8 °C 31.1 °F /  -0.5 °C 29.69 in /  1005.3 hPa NNW 4.0 mph /  6.4 km/h 9.2 mph /  14.8 km/h 85 % 0.00 in /  0 mm
16:15 35.1 °F /  1.7 °C 31.0 °F /  -0.6 °C 29.69 in /  1005.3 hPa NW 1.4 mph /  2.3 km/h 4.6 mph /  7.4 km/h 85 % 0.00 in /  0 mm
16:20 35.0 °F /  1.7 °C 31.2 °F /  -0.4 °C 29.70 in /  1005.6 hPa NNW 2.3 mph /  3.7 km/h 8.1 mph /  13 km/h 86 % 0.00 in /  0 mm
16:25 34.9 °F /  1.6 °C 31.1 °F /  -0.5 °C 29.70 in /  1005.6 hPa NNW 3.9 mph /  6.3 km/h 6.0 mph /  9.7 km/h 86 % 0.00 in /  0 mm
16:30 34.8 °F /  1.6 °C 31.0 °F /  -0.6 °C 29.69 in /  1005.3 hPa NW 3.4 mph /  5.5 km/h 5.8 mph /  9.3 km/h 86 % 0.00 in /  0 mm
16:35 34.7 °F /  1.5 °C 30.9 °F /  -0.6 °C 29.70 in /  1005.6 hPa NW 3.1 mph /  5 km/h 3.5 mph /  5.6 km/h 86 % 0.00 in /  0 mm
16:40 34.6 °F /  1.4 °C 30.8 °F /  -0.7 °C 29.70 in /  1005.6 hPa NNW 1.6 mph /  2.6 km/h 8.1 mph /  13 km/h 86 % 0.00 in /  0 mm
16:45 34.5 °F /  1.4 °C 30.7 °F /  -0.7 °C 29.70 in /  1005.6 hPa NNW 2.8 mph /  4.5 km/h 4.6 mph /  7.4 km/h 86 % 0.00 in /  0 mm
16:50 34.5 °F /  1.4 °C 30.7 °F /  -0.7 °C 29.70 in /  1005.6 hPa NNW 2.1 mph /  3.4 km/h 4.6 mph /  7.4 km/h 86 % 0.00 in /  0 mm
16:55 34.4 °F /  1.3 °C 30.6 °F /  -0.8 °C 29.71 in /  1006 hPa WNW 2.9 mph /  4.7 km/h 6.9 mph /  11.1 km/h 86 % 0.00 in /  0 mm
17:00 34.4 °F /  1.3 °C 30.6 °F /  -0.8 °C 29.72 in /  1006.3 hPa West 2.6 mph /  4.2 km/h 10.4 mph /  16.7 km/h 86 % 0.00 in /  0 mm
17:06 34.3 °F /  1.3 °C 30.3 °F /  -0.9 °C 29.72 in /  1006.3 hPa WNW 6.0 mph /  9.7 km/h 12.0 mph /  19.3 km/h 85 % 0.00 in /  0 mm
17:11 34.2 °F /  1.2 °C 30.1 °F /  -1.1 °C 29.72 in /  1006.3 hPa WNW 6.0 mph /  9.7 km/h 12.0 mph /  19.3 km/h 85 % 0.00 in /  0 mm
17:16 34.0 °F /  1.1 °C 29.7 °F /  -1.3 °C 29.72 in /  1006.3 hPa WNW 5.0 mph /  8 km/h 14.0 mph /  22.5 km/h 84 % 0.00 in /  0 mm
17:21 33.8 °F /  1 °C 29.2 °F /  -1.6 °C 29.73 in /  1006.7 hPa WNW 4.3 mph /  6.9 km/h 7.0 mph /  11.3 km/h 83 % 0.00 in /  0 mm
17:26 33.7 °F /  0.9 °C 29.1 °F /  -1.6 °C 29.73 in /  1006.7 hPa WNW 3.0 mph /  4.8 km/h 10.0 mph /  16.1 km/h 83 % 0.00 in /  0 mm
17:31 33.7 °F /  0.9 °C 29.1 °F /  -1.6 °C 29.73 in /  1006.7 hPa WNW 5.0 mph /  8 km/h 10.0 mph /  16.1 km/h 83 % 0.00 in /  0 mm
17:36 33.5 °F /  0.8 °C 28.9 °F /  -1.7 °C 29.74 in /  1007 hPa WNW 6.0 mph /  9.7 km/h 10.0 mph /  16.1 km/h 83 % 0.00 in /  0 mm
17:41 33.5 °F /  0.8 °C 28.9 °F /  -1.7 °C 29.74 in /  1007 hPa WNW 3.0 mph /  4.8 km/h 12.0 mph /  19.3 km/h 83 % 0.00 in /  0 mm
17:46 33.5 °F /  0.8 °C 29.2 °F /  -1.6 °C 29.74 in /  1007 hPa WNW 5.0 mph /  8 km/h 12.0 mph /  19.3 km/h 84 % 0.00 in /  0 mm
17:51 33.4 °F /  0.8 °C 29.1 °F /  -1.6 °C 29.75 in /  1007.3 hPa WNW 5.0 mph /  8 km/h 8.0 mph /  12.9 km/h 84 % 0.00 in /  0 mm
17:56 33.4 °F /  0.8 °C 29.1 °F /  -1.6 °C 29.75 in /  1007.3 hPa WNW 5.0 mph /  8 km/h 9.0 mph /  14.5 km/h 84 % 0.00 in /  0 mm
18:01 33.4 °F /  0.8 °C 29.1 °F /  -1.6 °C 29.75 in /  1007.3 hPa WNW 6.9 mph /  11.1 km/h 16.1 mph /  25.9 km/h 84 % 0.00 in /  0 mm
18:06 33.4 °F /  0.8 °C 29.1 °F /  -1.6 °C 29.76 in /  1007.7 hPa NW 3.0 mph /  4.8 km/h 6.9 mph /  11.1 km/h 84 % 0.00 in /  0 mm
18:11 33.3 °F /  0.7 °C 28.7 °F /  -1.8 °C 29.76 in /  1007.7 hPa WSW 6.7 mph /  10.8 km/h 16.1 mph /  25.9 km/h 83 % 0.00 in /  0 mm
18:16 33.2 °F /  0.7 °C 28.3 °F /  -2.1 °C 29.76 in /  1007.7 hPa WNW 6.7 mph /  10.8 km/h 11.5 mph /  18.5 km/h 82 % 0.00 in /  0 mm
18:21 33.0 °F /  0.6 °C 27.8 °F /  -2.3 °C 29.77 in /  1008 hPa NW 2.8 mph /  4.5 km/h 6.9 mph /  11.1 km/h 81 % 0.00 in /  0 mm
18:26 32.9 °F /  0.5 °C 27.7 °F /  -2.4 °C 29.77 in /  1008 hPa NW 6.7 mph /  10.8 km/h 14.0 mph /  22.5 km/h 81 % 0.00 in /  0 mm
18:31 32.7 °F /  0.4 °C 27.2 °F /  -2.7 °C 29.78 in /  1008.4 hPa WSW 7.9 mph /  12.7 km/h 13.8 mph /  22.2 km/h 80 % 0.00 in /  0 mm
18:36 32.5 °F /  0.3 °C 27.0 °F /  -2.8 °C 29.79 in /  1008.7 hPa WNW 7.7 mph /  12.4 km/h 12.7 mph /  20.4 km/h 80 % 0.00 in /  0 mm
18:41 32.2 °F /  0.1 °C 26.1 °F /  -3.3 °C 29.79 in /  1008.7 hPa West 9.3 mph /  15 km/h 18.4 mph /  29.6 km/h 78 % 0.00 in /  0 mm
18:46 32.0 °F /  0 °C 25.9 °F /  -3.4 °C 29.79 in /  1008.7 hPa WNW 4.1 mph /  6.6 km/h 8.1 mph /  13 km/h 78 % 0.00 in /  0 mm
18:51 31.8 °F /  -0.1 °C 25.4 °F /  -3.7 °C 29.79 in /  1008.7 hPa NNW 1.8 mph /  2.9 km/h 11.5 mph /  18.5 km/h 77 % 0.00 in /  0 mm
18:56 31.6 °F /  -0.2 °C 25.2 °F /  -3.8 °C 29.79 in /  1008.7 hPa NNW 8.0 mph /  12.9 km/h 16.1 mph /  25.9 km/h 77 % 0.00 in /  0 mm
19:01 31.4 °F /  -0.3 °C 24.7 °F /  -4.1 °C 29.80 in /  1009 hPa NW 7.2 mph /  11.6 km/h 15.0 mph /  24.1 km/h 76 % 0.00 in /  0 mm
19:06 31.2 °F /  -0.4 °C 24.2 °F /  -4.3 °C 29.80 in /  1009 hPa NNW 6.5 mph /  10.5 km/h 15.0 mph /  24.1 km/h 75 % 0.00 in /  0 mm
19:11 31.0 °F /  -0.6 °C 24.0 °F /  -4.4 °C 29.80 in /  1009 hPa NW 7.1 mph /  11.4 km/h 11.5 mph /  18.5 km/h 75 % 0.00 in /  0 mm
19:16 30.9 °F /  -0.6 °C 23.9 °F /  -4.5 °C 29.80 in /  1009 hPa NW 4.2 mph /  6.8 km/h 17.3 mph /  27.8 km/h 75 % 0.00 in /  0 mm
19:21 30.8 °F /  -0.7 °C 23.8 °F /  -4.6 °C 29.81 in /  1009.4 hPa NW 8.6 mph /  13.8 km/h 12.0 mph /  19.3 km/h 75 % 0.00 in /  0 mm
19:27 30.7 °F /  -0.7 °C 23.7 °F /  -4.6 °C 29.81 in /  1009.4 hPa WNW 6.3 mph /  10.1 km/h 15.0 mph /  24.1 km/h 75 % 0.00 in /  0 mm
19:32 30.6 °F /  -0.8 °C 23.6 °F /  -4.7 °C 29.81 in /  1009.4 hPa West 6.5 mph /  10.5 km/h 13.8 mph /  22.2 km/h 75 % 0.00 in /  0 mm
19:37 30.5 °F /  -0.8 °C 23.8 °F /  -4.6 °C 29.82 in /  1009.7 hPa WNW 6.7 mph /  10.8 km/h 16.1 mph /  25.9 km/h 76 % 0.00 in /  0 mm
19:42 30.5 °F /  -0.8 °C 23.8 °F /  -4.6 °C 29.82 in /  1009.7 hPa NW 7.8 mph /  12.6 km/h 13.8 mph /  22.2 km/h 76 % 0.00 in /  0 mm
19:47 30.3 °F /  -0.9 °C 23.6 °F /  -4.7 °C 29.82 in /  1009.7 hPa NW 8.1 mph /  13 km/h 20.7 mph /  33.3 km/h 76 % 0.00 in /  0 mm
19:52 30.2 °F /  -1 °C 23.5 °F /  -4.7 °C 29.82 in /  1009.7 hPa WNW 7.4 mph /  11.9 km/h 12.7 mph /  20.4 km/h 76 % 0.00 in /  0 mm
19:57 30.1 °F /  -1.1 °C 23.4 °F /  -4.8 °C 29.82 in /  1009.7 hPa NW 6.6 mph /  10.6 km/h 13.0 mph /  20.9 km/h 76 % 0.00 in /  0 mm
20:02 30.0 °F /  -1.1 °C 23.0 °F /  -5 °C 29.83 in /  1010 hPa WNW 7.8 mph /  12.6 km/h 18.4 mph /  29.6 km/h 75 % 0.00 in /  0 mm
20:07 29.9 °F /  -1.2 °C 23.3 °F /  -4.8 °C 29.83 in /  1010 hPa NW 7.9 mph /  12.7 km/h 15.0 mph /  24.1 km/h 76 % 0.00 in /  0 mm
20:12 29.8 °F /  -1.2 °C 23.2 °F /  -4.9 °C 29.83 in /  1010 hPa NW 7.2 mph /  11.6 km/h 13.8 mph /  22.2 km/h 76 % 0.00 in /  0 mm
20:17 29.7 °F /  -1.3 °C 23.1 °F /  -4.9 °C 29.83 in /  1010 hPa WNW 5.6 mph /  9 km/h 9.2 mph /  14.8 km/h 76 % 0.00 in /  0 mm
20:22 29.6 °F /  -1.3 °C 23.0 °F /  -5 °C 29.83 in /  1010 hPa WNW 6.6 mph /  10.6 km/h 13.8 mph /  22.2 km/h 76 % 0.00 in /  0 mm
20:27 29.5 °F /  -1.4 °C 23.2 °F /  -4.9 °C 29.84 in /  1010.4 hPa WNW 7.4 mph /  11.9 km/h 16.1 mph /  25.9 km/h 77 % 0.00 in /  0 mm
20:32 29.3 °F /  -1.5 °C 23.0 °F /  -5 °C 29.84 in /  1010.4 hPa NW 5.6 mph /  9 km/h 13.0 mph /  20.9 km/h 77 % 0.00 in /  0 mm
20:37 29.2 °F /  -1.6 °C 23.2 °F /  -4.9 °C 29.84 in /  1010.4 hPa WSW 5.2 mph /  8.4 km/h 11.5 mph /  18.5 km/h 78 % 0.00 in /  0 mm
20:42 29.1 °F /  -1.6 °C 23.1 °F /  -4.9 °C 29.85 in /  1010.7 hPa West 6.7 mph /  10.8 km/h 9.2 mph /  14.8 km/h 78 % 0.00 in /  0 mm
20:47 28.9 °F /  -1.7 °C 22.9 °F /  -5.1 °C 29.84 in /  1010.4 hPa NNW 4.1 mph /  6.6 km/h 8.1 mph /  13 km/h 78 % 0.00 in /  0 mm
20:52 28.8 °F /  -1.8 °C 22.8 °F /  -5.1 °C 29.85 in /  1010.7 hPa WNW 7.4 mph /  11.9 km/h 10.0 mph /  16.1 km/h 78 % 0.00 in /  0 mm
20:57 28.7 °F /  -1.8 °C 23.0 °F /  -5 °C 29.85 in /  1010.7 hPa NNW 6.5 mph /  10.5 km/h 13.8 mph /  22.2 km/h 79 % 0.00 in /  0 mm
21:02 28.5 °F /  -1.9 °C 23.1 °F /  -4.9 °C 29.85 in /  1010.7 hPa West 6.1 mph /  9.8 km/h 11.5 mph /  18.5 km/h 80 % 0.00 in /  0 mm
21:08 28.4 °F /  -2 °C 23.3 °F /  -4.8 °C 29.85 in /  1010.7 hPa NW 5.2 mph /  8.4 km/h 10.0 mph /  16.1 km/h 81 % 0.00 in /  0 mm
21:13 28.3 °F /  -2.1 °C 23.2 °F /  -4.9 °C 29.86 in /  1011.1 hPa NW 8.2 mph /  13.2 km/h 17.0 mph /  27.4 km/h 81 % 0.00 in /  0 mm
21:18 28.1 °F /  -2.2 °C 22.7 °F /  -5.2 °C 29.86 in /  1011.1 hPa WNW 10.4 mph /  16.7 km/h 16.1 mph /  25.9 km/h 80 % 0.00 in /  0 mm
21:23 27.8 °F /  -2.3 °C 22.1 °F /  -5.5 °C 29.86 in /  1011.1 hPa NW 8.6 mph /  13.8 km/h 14.0 mph /  22.5 km/h 79 % 0.00 in /  0 mm
21:28 27.7 °F /  -2.4 °C 22.3 °F /  -5.4 °C 29.87 in /  1011.4 hPa NW 7.8 mph /  12.6 km/h 17.3 mph /  27.8 km/h 80 % 0.00 in /  0 mm
21:33 27.6 °F /  -2.4 °C 21.9 °F /  -5.6 °C 29.87 in /  1011.4 hPa NW 8.7 mph /  14 km/h 15.0 mph /  24.1 km/h 79 % 0.00 in /  0 mm
21:38 27.4 °F /  -2.6 °C 21.4 °F /  -5.9 °C 29.87 in /  1011.4 hPa NNW 6.7 mph /  10.8 km/h 15.0 mph /  24.1 km/h 78 % 0.00 in /  0 mm
21:43 27.3 °F /  -2.6 °C 21.3 °F /  -5.9 °C 29.87 in /  1011.4 hPa North 6.8 mph /  10.9 km/h 10.0 mph /  16.1 km/h 78 % 0.00 in /  0 mm
21:48 27.2 °F /  -2.7 °C 21.2 °F /  -6 °C 29.87 in /  1011.4 hPa NW 5.6 mph /  9 km/h 11.5 mph /  18.5 km/h 78 % 0.00 in /  0 mm
21:53 27.2 °F /  -2.7 °C 21.2 °F /  -6 °C 29.88 in /  1011.7 hPa NW 6.2 mph /  10 km/h 13.8 mph /  22.2 km/h 78 % 0.00 in /  0 mm
21:58 27.2 °F /  -2.7 °C 20.9 °F /  -6.2 °C 29.88 in /  1011.7 hPa North 5.6 mph /  9 km/h 12.7 mph /  20.4 km/h 77 % 0.00 in /  0 mm
22:03 27.1 °F /  -2.7 °C 20.8 °F /  -6.2 °C 29.88 in /  1011.7 hPa NNW 4.3 mph /  6.9 km/h 10.4 mph /  16.7 km/h 77 % 0.00 in /  0 mm
22:08 27.0 °F /  -2.8 °C 20.7 °F /  -6.3 °C 29.88 in /  1011.7 hPa North 4.6 mph /  7.4 km/h 12.7 mph /  20.4 km/h 77 % 0.00 in /  0 mm
22:13 26.9 °F /  -2.8 °C 20.3 °F /  -6.5 °C 29.88 in /  1011.7 hPa NNW 5.1 mph /  8.2 km/h 10.0 mph /  16.1 km/h 76 % 0.00 in /  0 mm
22:18 26.9 °F /  -2.8 °C 20.3 °F /  -6.5 °C 29.88 in /  1011.7 hPa WNW 5.0 mph /  8 km/h 8.1 mph /  13 km/h 76 % 0.00 in /  0 mm
22:23 26.8 °F /  -2.9 °C 20.6 °F /  -6.3 °C 29.89 in /  1012.1 hPa North 4.0 mph /  6.4 km/h 10.4 mph /  16.7 km/h 77 % 0.00 in /  0 mm
22:28 26.8 °F /  -2.9 °C 20.6 °F /  -6.3 °C 29.88 in /  1011.7 hPa NNW 6.3 mph /  10.1 km/h 13.8 mph /  22.2 km/h 77 % 0.00 in /  0 mm
22:33 26.7 °F /  -2.9 °C 20.1 °F /  -6.6 °C 29.89 in /  1012.1 hPa North 6.4 mph /  10.3 km/h 13.8 mph /  22.2 km/h 76 % 0.00 in /  0 mm
22:38 26.7 °F /  -2.9 °C 20.1 °F /  -6.6 °C 29.89 in /  1012.1 hPa North 6.2 mph /  10 km/h 15.0 mph /  24.1 km/h 76 % 0.00 in /  0 mm
22:44 26.7 °F /  -2.9 °C 19.8 °F /  -6.8 °C 29.89 in /  1012.1 hPa WNW 5.6 mph /  9 km/h 15.0 mph /  24.1 km/h 75 % 0.00 in /  0 mm
22:49 26.7 °F /  -2.9 °C 19.8 °F /  -6.8 °C 29.89 in /  1012.1 hPa NW 9.5 mph /  15.3 km/h 13.0 mph /  20.9 km/h 75 % 0.00 in /  0 mm
22:54 26.6 °F /  -3 °C 19.4 °F /  -7 °C 29.90 in /  1012.4 hPa NNW 6.4 mph /  10.3 km/h 11.5 mph /  18.5 km/h 74 % 0.00 in /  0 mm
22:59 26.6 °F /  -3 °C 19.7 °F /  -6.8 °C 29.90 in /  1012.4 hPa NNW 3.6 mph /  5.8 km/h 15.0 mph /  24.1 km/h 75 % 0.00 in /  0 mm
23:04 26.6 °F /  -3 °C 20.1 °F /  -6.6 °C 29.89 in /  1012.1 hPa North 5.8 mph /  9.3 km/h 11.5 mph /  18.5 km/h 76 % 0.00 in /  0 mm
23:09 26.6 °F /  -3 °C 20.1 °F /  -6.6 °C 29.90 in /  1012.4 hPa North 6.6 mph /  10.6 km/h 10.4 mph /  16.7 km/h 76 % 0.00 in /  0 mm
23:14 26.6 °F /  -3 °C 20.1 °F /  -6.6 °C 29.90 in /  1012.4 hPa NNE 5.5 mph /  8.9 km/h 11.5 mph /  18.5 km/h 76 % 0.00 in /  0 mm
23:19 26.6 °F /  -3 °C 19.7 °F /  -6.8 °C 29.90 in /  1012.4 hPa NNE 6.6 mph /  10.6 km/h 10.4 mph /  16.7 km/h 75 % 0.00 in /  0 mm
23:24 26.5 °F /  -3.1 °C 19.3 °F /  -7.1 °C 29.90 in /  1012.4 hPa North 6.0 mph /  9.7 km/h 12.7 mph /  20.4 km/h 74 % 0.00 in /  0 mm
23:29 26.4 °F /  -3.1 °C 19.2 °F /  -7.1 °C 29.90 in /  1012.4 hPa NW 5.5 mph /  8.9 km/h 8.0 mph /  12.9 km/h 74 % 0.00 in /  0 mm
23:34 26.3 °F /  -3.2 °C 18.8 °F /  -7.3 °C 29.90 in /  1012.4 hPa NNW 4.3 mph /  6.9 km/h 10.4 mph /  16.7 km/h 73 % 0.00 in /  0 mm
23:39 26.2 °F /  -3.2 °C 18.4 °F /  -7.6 °C 29.90 in /  1012.4 hPa North 8.6 mph /  13.8 km/h 13.8 mph /  22.2 km/h 72 % 0.00 in /  0 mm
23:44 26.1 °F /  -3.3 °C 18.3 °F /  -7.6 °C 29.90 in /  1012.4 hPa North 4.7 mph /  7.6 km/h 6.0 mph /  9.7 km/h 72 % 0.00 in /  0 mm
23:49 26.1 °F /  -3.3 °C 18.6 °F /  -7.4 °C 29.90 in /  1012.4 hPa NW 5.4 mph /  8.7 km/h 9.2 mph /  14.8 km/h 73 % 0.00 in /  0 mm
23:54 26.0 °F /  -3.3 °C 18.5 °F /  -7.5 °C 29.90 in /  1012.4 hPa North 7.1 mph /  11.4 km/h 10.4 mph /  16.7 km/h 73 % 0.00 in /  0 mm
23:59 26.0 °F /  -3.3 °C 18.5 °F /  -7.5 °C 29.90 in /  1012.4 hPa NW 4.5 mph /  7.2 km/h 8.1 mph /  13 km/h 73 % 0.00 in /  0 mm
Crab Meadow Weather
Compliments of Weather Underground - 3 mb

Script developed by  Jim McMurry - jmcmurry@mwt.net Adapted for the template by  Wim van der Kuil - Leuven-Template.eu

Recycling: Recycling 1 aluminum can saves enough energy to run your TV for 3 hours. Recycling aluminum cans saves 95% of the energy used to make cans from virgin ore.